Time;durP1;ratioP1;P1;durP2;ratioP2;P2;SDS_P1;SDS_P2;PMS_P1;PMS_P2;Temp;Humidity;BMP_temperature;BMP_pressure;BME280_temperature;BME280_humidity;BME280_pressure;Samples;Min_cycle;Max_cycle;Signal;HPM_P1;HPM_P2
2021/11/02 00:01:38;;;;;;;48.23;29.83;;;9.50;99.90;;;;;;4952679;29;20465;-60
2021/11/02 00:04:04;;;;;;;46.27;30.30;;;9.40;99.90;;;;;;4953417;29;20445;-61
2021/11/02 00:06:30;;;;;;;52.00;30.63;;;9.30;99.90;;;;;;4948444;29;20174;-60
2021/11/02 00:08:55;;;;;;;50.97;31.47;;;9.20;99.90;;;;;;4935151;29;20434;-60
2021/11/02 00:11:21;;;;;;;52.53;33.13;;;9.20;99.90;;;;;;4951045;29;20218;-60
2021/11/02 00:13:52;;;;;;;53.50;33.03;;;9.20;99.90;;;;;;4952185;29;20185;-60
2021/11/02 00:16:20;;;;;;;52.20;32.53;;;9.20;99.90;;;;;;4953886;29;20657;-60
2021/11/02 00:18:50;;;;;;;52.03;31.87;;;9.20;99.90;;;;;;4954218;29;20476;-60
2021/11/02 00:21:16;;;;;;;43.00;27.77;;;9.20;99.90;;;;;;4953643;29;20513;-60
2021/11/02 00:23:41;;;;;;;45.10;30.13;;;9.10;99.90;;;;;;4954369;29;20518;-60
2021/11/02 00:26:12;;;;;;;45.17;28.60;;;9.10;99.90;;;;;;4952520;29;20892;-59
2021/11/02 00:28:39;;;;;;;44.27;28.27;;;9.10;99.90;;;;;;4953540;29;20214;-60
2021/11/02 00:31:05;;;;;;;39.20;26.33;;;9.10;99.90;;;;;;4953850;29;20758;-60
2021/11/02 00:33:31;;;;;;;41.80;26.40;;;9.00;99.90;;;;;;4950724;29;20822;-60
2021/11/02 00:35:57;;;;;;;35.30;24.40;;;9.00;99.90;;;;;;4953179;29;20476;-59
2021/11/02 00:38:24;;;;;;;40.30;25.10;;;9.00;99.90;;;;;;4953152;29;20259;-60
2021/11/02 00:40:49;;;;;;;36.27;23.50;;;9.00;99.90;;;;;;4946881;29;20414;-59
2021/11/02 00:43:15;;;;;;;30.07;22.27;;;9.00;99.90;;;;;;4934591;29;20769;-59
2021/11/02 00:45:41;;;;;;;35.50;21.47;;;9.00;99.90;;;;;;4922359;29;20240;-60
2021/11/02 00:48:12;;;;;;;31.20;20.17;;;9.00;99.90;;;;;;4919754;29;20260;-61
2021/11/02 00:50:39;;;;;;;26.50;18.80;;;9.00;99.90;;;;;;4948040;29;20484;-60
2021/11/02 00:53:06;;;;;;;22.90;16.50;;;9.00;99.90;;;;;;4952656;29;20516;-60
2021/11/02 00:55:32;;;;;;;27.20;17.77;;;8.90;99.90;;;;;;4946197;29;20851;-59
2021/11/02 00:58:01;;;;;;;24.53;15.50;;;8.90;99.90;;;;;;4944161;29;20433;-60
2021/11/02 01:00:26;;;;;;;21.40;14.70;;;9.00;99.90;;;;;;4951306;29;20520;-60
2021/11/02 01:02:52;;;;;;;17.43;13.83;;;9.00;99.90;;;;;;4940342;29;20537;-60
2021/11/02 01:05:18;;;;;;;19.20;13.30;;;9.00;99.90;;;;;;4952694;28;20208;-60
2021/11/02 01:07:43;;;;;;;22.93;13.53;;;9.00;99.90;;;;;;4953179;29;20312;-60
2021/11/02 01:10:17;;;;;;;17.43;12.63;;;9.00;99.90;;;;;;4953046;29;20220;-60
2021/11/02 01:12:44;;;;;;;15.70;11.73;;;9.00;99.90;;;;;;4952557;29;20194;-59
2021/11/02 01:15:11;;;;;;;17.17;10.80;;;9.00;99.90;;;;;;4952960;29;20425;-60
2021/11/02 01:17:37;;;;;;;16.63;11.63;;;8.90;99.90;;;;;;4950876;29;20456;-57
2021/11/02 01:20:06;;;;;;;15.47;10.90;;;8.90;99.90;;;;;;4952890;29;20787;-60
2021/11/02 01:22:31;;;;;;;14.60;10.60;;;8.90;99.90;;;;;;4946763;29;20928;-60
2021/11/02 01:24:57;;;;;;;15.97;10.60;;;8.90;99.90;;;;;;4926271;29;20425;-60
2021/11/02 01:27:23;;;;;;;18.27;11.93;;;8.90;99.90;;;;;;4943262;29;20300;-60
2021/11/02 01:29:48;;;;;;;15.53;11.40;;;8.80;99.90;;;;;;4951315;29;20201;-60
2021/11/02 01:32:14;;;;;;;15.93;12.17;;;8.80;99.90;;;;;;4935032;29;20664;-59
2021/11/02 01:34:39;;;;;;;17.93;12.13;;;8.70;99.90;;;;;;4951399;29;20872;-60
2021/11/02 01:37:07;;;;;;;20.27;12.53;;;8.70;99.90;;;;;;4951320;29;20200;-60
2021/11/02 01:39:33;;;;;;;20.80;14.77;;;8.80;99.90;;;;;;4950654;29;20194;-60
2021/11/02 01:42:00;;;;;;;21.40;14.47;;;8.70;99.90;;;;;;4933108;29;20619;-60
2021/11/02 01:44:26;;;;;;;22.53;15.70;;;8.70;99.90;;;;;;4927864;29;20621;-60
2021/11/02 01:46:52;;;;;;;19.23;14.83;;;8.70;99.90;;;;;;4952223;29;20457;-61
2021/11/02 01:49:18;;;;;;;21.67;15.40;;;8.70;99.90;;;;;;4950466;29;20196;-61
2021/11/02 01:51:44;;;;;;;22.47;17.03;;;8.70;99.90;;;;;;4951798;29;20228;-60
2021/11/02 01:54:09;;;;;;;26.40;16.27;;;8.70;99.90;;;;;;4949431;29;20186;-59
2021/11/02 01:56:36;;;;;;;25.60;16.40;;;8.70;99.90;;;;;;4950989;29;20190;-61
2021/11/02 01:59:02;;;;;;;23.40;17.20;;;8.70;99.90;;;;;;4952085;29;20215;-60
2021/11/02 02:01:58;;;;;;;22.10;16.40;;;8.70;99.90;;;;;;4951985;29;21470;-61
2021/11/02 02:04:51;;;;;;;21.17;15.40;;;8.80;99.90;;;;;;4916072;29;20960;-60
2021/11/02 02:07:34;;;;;;;20.57;15.50;;;8.80;99.90;;;;;;4937372;29;20466;-60
2021/11/02 02:10:08;;;;;;;21.63;14.27;;;8.80;99.90;;;;;;4932443;29;20430;-60
2021/11/02 02:12:47;;;;;;;20.33;15.27;;;8.70;99.90;;;;;;4933159;29;20438;-62
2021/11/02 02:15:24;;;;;;;18.70;14.13;;;8.70;99.90;;;;;;4932630;29;20814;-61
2021/11/02 02:17:56;;;;;;;21.00;13.73;;;8.70;99.90;;;;;;4938486;29;20437;-61
2021/11/02 02:20:53;;;;;;;20.33;14.70;;;8.70;99.90;;;;;;4947737;29;20437;-62
2021/11/02 02:23:51;;;;;;;18.00;13.30;;;8.80;99.90;;;;;;4926820;28;20508;-61
2021/11/02 02:26:53;;;;;;;17.13;11.77;;;8.70;99.90;;;;;;4950382;29;20429;-61
2021/11/02 02:29:21;;;;;;;14.77;10.60;;;8.80;99.90;;;;;;4941834;29;20437;-60
2021/11/02 02:31:48;;;;;;;14.77;9.87;;;8.80;99.90;;;;;;4951707;29;20638;-61
2021/11/02 02:34:16;;;;;;;14.87;9.20;;;8.80;99.90;;;;;;4938475;29;20480;-61
2021/11/02 02:36:44;;;;;;;12.43;8.70;;;8.80;99.90;;;;;;4951930;29;20413;-60
2021/11/02 02:39:12;;;;;;;11.37;7.73;;;8.80;99.90;;;;;;4945456;29;20431;-61
2021/11/02 02:41:40;;;;;;;10.90;7.90;;;8.80;99.90;;;;;;4945421;29;20412;-61
2021/11/02 02:44:08;;;;;;;12.23;8.60;;;8.80;99.90;;;;;;4947623;29;20437;-60
2021/11/02 02:46:35;;;;;;;11.30;7.40;;;8.80;99.90;;;;;;4940869;29;20444;-61
2021/11/02 02:49:01;;;;;;;9.73;7.13;;;8.80;99.90;;;;;;4951556;29;20492;-61
2021/11/02 02:51:27;;;;;;;8.30;6.73;;;8.80;99.90;;;;;;4951597;29;20758;-61
2021/11/02 02:53:54;;;;;;;8.27;5.90;;;8.80;99.90;;;;;;4941034;29;20437;-60
2021/11/02 02:56:21;;;;;;;7.17;5.53;;;8.70;99.90;;;;;;4951593;29;20402;-61
2021/11/02 02:58:50;;;;;;;9.10;5.70;;;8.70;99.90;;;;;;4950439;29;20462;-60
2021/11/02 03:01:19;;;;;;;7.87;5.70;;;8.70;99.90;;;;;;4932731;29;20440;-60
2021/11/02 03:03:55;;;;;;;5.97;4.73;;;8.70;99.90;;;;;;4950177;29;20429;-60
2021/11/02 03:06:23;;;;;;;8.20;6.10;;;8.70;99.90;;;;;;4951508;29;20408;-61
2021/11/02 03:08:50;;;;;;;7.87;6.53;;;8.60;99.90;;;;;;4949966;29;20479;-60
2021/11/02 03:11:17;;;;;;;7.40;5.90;;;8.60;99.90;;;;;;4951550;29;20422;-60
2021/11/02 03:13:48;;;;;;;8.97;5.40;;;8.70;99.90;;;;;;4947546;29;20421;-61
2021/11/02 03:16:17;;;;;;;6.87;5.40;;;8.60;99.90;;;;;;4934208;29;20484;-61
2021/11/02 04:00:31;;;;;;;6.10;4.30;;;8.40;99.90;;;;;;4931555;29;20456;-60
2021/11/02 04:25:47;;;;;;;4.60;3.60;;;8.50;99.90;;;;;;4952504;29;20797;-57
2021/11/02 04:28:21;;;;;;;6.50;3.93;;;8.60;99.90;;;;;;4951824;29;20508;-60
2021/11/02 05:09:42;;;;;;;4.83;2.53;;;8.60;99.90;;;;;;4946824;29;20468;-61
2021/11/02 05:47:52;;;;;;;4.57;3.07;;;8.60;99.90;;;;;;4951039;29;20812;-61
2021/11/02 05:50:56;;;;;;;4.03;2.80;;;8.50;99.90;;;;;;4951169;28;20923;-61
2021/11/02 05:53:52;;;;;;;5.23;3.33;;;8.50;99.90;;;;;;4948568;29;20456;-61
2021/11/02 05:56:33;;;;;;;7.37;3.27;;;8.50;99.90;;;;;;4950366;29;21158;-61
2021/11/02 06:29:27;;;;;;;4.27;3.73;;;8.40;99.90;;;;;;4950871;29;20436;-60
2021/11/02 06:31:57;;;;;;;4.33;3.83;;;8.50;99.90;;;;;;4951095;29;20844;-60
2021/11/02 06:37:34;;;;;;;5.10;3.70;;;8.50;99.90;;;;;;4947590;29;20472;-61
2021/11/02 06:46:40;;;;;;;4.53;4.03;;;8.60;99.90;;;;;;4950787;29;20412;-61
2021/11/02 06:51:25;;;;;;;5.40;4.67;;;8.70;99.90;;;;;;4935268;29;20429;-62
2021/11/02 06:57:12;;;;;;;5.00;4.47;;;8.70;99.90;;;;;;4938491;29;20420;-62
2021/11/02 07:17:21;;;;;;;6.70;6.00;;;8.60;99.90;;;;;;4960582;28;20423;-62
2021/11/02 07:20:01;;;;;;;7.00;5.93;;;8.60;99.90;;;;;;4944027;28;20407;-62
2021/11/02 08:46:39;;;;;;;7.63;6.80;;;10.20;99.90;;;;;;4952139;29;20449;-58
2021/11/02 08:49:06;;;;;;;8.20;6.80;;;10.20;99.90;;;;;;4952351;29;20469;-62
2021/11/02 08:51:32;;;;;;;7.73;6.93;;;10.30;99.90;;;;;;4934870;29;20460;-62
2021/11/02 08:53:58;;;;;;;7.90;6.50;;;10.30;99.90;;;;;;4952454;29;20417;-54
2021/11/02 08:56:24;;;;;;;7.53;6.73;;;10.40;99.90;;;;;;4951637;29;20507;-61
2021/11/02 08:58:52;;;;;;;9.10;7.50;;;10.30;99.90;;;;;;4952006;29;20193;-60
2021/11/02 09:01:21;;;;;;;8.07;7.27;;;10.40;99.90;;;;;;4951736;29;20231;-61
2021/11/02 09:03:51;;;;;;;7.03;6.33;;;10.50;99.90;;;;;;4951777;29;20562;-60
2021/11/02 09:06:21;;;;;;;7.20;6.50;;;10.50;99.90;;;;;;4951528;29;20861;-60
2021/11/02 09:08:54;;;;;;;7.50;6.80;;;10.60;99.90;;;;;;4943679;29;20458;-60
2021/11/02 09:11:21;;;;;;;6.50;5.90;;;10.60;99.90;;;;;;4948158;29;20529;-59
2021/11/02 09:13:56;;;;;;;7.63;6.57;;;10.60;99.90;;;;;;4951672;29;20992;-60
2021/11/02 09:16:26;;;;;;;7.03;6.33;;;10.60;99.90;;;;;;4934298;29;20480;-60
2021/11/02 09:18:53;;;;;;;7.53;6.47;;;10.50;99.90;;;;;;4951529;29;20904;-59
2021/11/02 09:21:21;;;;;;;7.80;6.40;;;10.60;99.90;;;;;;4951927;29;20441;-60
2021/11/02 09:23:49;;;;;;;7.23;6.53;;;10.70;99.90;;;;;;4950754;29;20443;-53
2021/11/02 09:26:16;;;;;;;7.50;6.73;;;10.90;99.90;;;;;;4947813;28;21286;-60
2021/11/02 09:28:43;;;;;;;6.60;5.77;;;11.00;99.90;;;;;;4951603;29;20944;-59
2021/11/02 09:31:10;;;;;;;7.13;6.43;;;11.10;99.90;;;;;;4946537;29;20442;-60
2021/11/02 09:33:36;;;;;;;6.83;6.13;;;11.20;99.90;;;;;;4948840;29;20477;-60
2021/11/02 09:36:05;;;;;;;6.97;6.27;;;11.30;99.90;;;;;;4951761;29;20446;-60
2021/11/02 09:38:46;;;;;;;7.23;6.53;;;11.30;99.90;;;;;;4948675;29;20190;-61
2021/11/02 09:41:46;;;;;;;5.80;5.30;;;11.40;99.90;;;;;;4943945;29;20476;-60
2021/11/02 09:44:14;;;;;;;6.63;6.03;;;11.40;99.90;;;;;;4939916;29;20886;-61
2021/11/02 09:47:03;;;;;;;8.27;6.20;;;11.40;99.90;;;;;;4950572;29;20829;-60
2021/11/02 09:49:43;;;;;;;6.00;5.43;;;11.40;99.90;;;;;;4939796;29;20440;-61
2021/11/02 09:52:45;;;;;;;6.60;6.00;;;11.50;99.90;;;;;;4951240;29;20417;-60
2021/11/02 09:55:46;;;;;;;7.47;5.97;;;11.40;99.90;;;;;;4951271;29;20436;-58
2021/11/02 09:58:15;;;;;;;6.17;5.60;;;11.60;99.90;;;;;;4938181;29;20464;-59
2021/11/02 10:00:49;;;;;;;6.50;5.90;;;11.70;99.90;;;;;;4950324;29;20449;-60
2021/11/02 10:03:39;;;;;;;6.80;6.10;;;11.80;99.90;;;;;;4950404;29;20440;-60
2021/11/02 10:06:22;;;;;;;6.40;5.77;;;12.00;99.90;;;;;;4939639;29;20424;-56
2021/11/02 10:09:22;;;;;;;6.63;5.97;;;12.10;99.90;;;;;;4941763;29;20484;-60
2021/11/02 10:12:05;;;;;;;6.87;6.17;;;12.30;99.90;;;;;;4946008;29;20500;-61
2021/11/02 10:15:05;;;;;;;6.53;5.93;;;12.40;99.90;;;;;;4950106;29;20439;-60
2021/11/02 10:18:18;;;;;;;6.20;5.60;;;12.70;99.90;;;;;;4919928;29;20456;-60
2021/11/02 10:21:12;;;;;;;5.83;5.23;;;13.00;99.90;;;;;;4915283;29;20444;-59
2021/11/02 10:24:06;;;;;;;6.80;6.17;;;13.50;99.90;;;;;;4917942;29;20434;-59
2021/11/02 10:26:39;;;;;;;6.23;5.47;;;13.90;99.90;;;;;;4945618;29;20429;-60
2021/11/02 10:29:17;;;;;;;6.57;5.83;;;14.10;99.90;;;;;;4950802;29;20512;-61
2021/11/02 10:31:50;;;;;;;6.17;5.67;;;14.30;99.90;;;;;;4950392;29;20864;-61
2021/11/02 10:34:41;;;;;;;7.50;5.33;;;14.50;99.90;;;;;;4950113;29;20559;-60
2021/11/02 10:37:21;;;;;;;6.30;5.70;;;14.70;99.90;;;;;;4947787;28;20492;-61
2021/11/02 10:40:20;;;;;;;6.40;5.80;;;15.00;99.90;;;;;;4937469;29;20511;-54
2021/11/02 10:42:57;;;;;;;6.43;5.83;;;15.30;99.90;;;;;;4940835;29;20472;-59
2021/11/02 10:45:28;;;;;;;6.30;5.70;;;15.30;99.90;;;;;;4952289;29;20413;-60
2021/11/02 10:48:11;;;;;;;5.70;5.20;;;15.60;99.90;;;;;;4950546;29;20481;-60
2021/11/02 10:50:47;;;;;;;7.80;7.10;;;15.90;99.90;;;;;;4952692;29;20427;-55
2021/11/02 10:53:31;;;;;;;7.30;5.20;;;16.10;99.90;;;;;;4942316;29;20441;-60
2021/11/02 10:56:10;;;;;;;6.40;5.80;;;16.20;99.90;;;;;;4952324;29;20460;-60
2021/11/02 10:58:49;;;;;;;7.60;6.90;;;16.10;99.90;;;;;;4945787;29;20445;-60
2021/11/02 11:01:16;;;;;;;7.03;6.37;;;16.00;99.90;;;;;;4933246;29;20870;-60
2021/11/02 11:03:43;;;;;;;7.50;6.80;;;16.00;99.90;;;;;;4951153;29;20457;-60
2021/11/02 11:06:13;;;;;;;7.20;6.60;;;16.10;99.90;;;;;;4933221;29;20937;-60
2021/11/02 11:08:41;;;;;;;6.57;6.07;;;16.00;99.90;;;;;;4931818;29;20481;-60
2021/11/02 11:11:09;;;;;;;6.90;6.30;;;16.20;99.90;;;;;;4944984;29;20530;-60
2021/11/02 11:13:38;;;;;;;6.50;5.83;;;16.50;99.90;;;;;;4952061;29;20747;-60
2021/11/02 11:16:11;;;;;;;4.90;4.50;;;16.10;99.90;;;;;;4952190;29;20417;-60
2021/11/02 11:19:02;;;;;;;5.00;4.70;;;16.10;99.90;;;;;;4950062;29;20439;-60
2021/11/02 11:21:32;;;;;;;6.33;5.83;;;15.90;99.90;;;;;;4951734;29;20429;-50
2021/11/02 11:24:17;;;;;;;6.10;5.70;;;16.00;99.90;;;;;;4950740;29;20433;-60
2021/11/02 11:26:49;;;;;;;6.20;5.70;;;16.10;99.90;;;;;;4940633;29;21013;-52
2021/11/02 11:29:20;;;;;;;5.60;5.10;;;16.20;99.90;;;;;;4951666;29;20466;-59
2021/11/02 11:31:47;;;;;;;5.50;5.03;;;15.90;99.90;;;;;;4951939;29;20448;-61
2021/11/02 11:34:15;;;;;;;5.53;5.03;;;15.90;99.90;;;;;;4943703;28;21187;-60
2021/11/02 11:36:49;;;;;;;5.43;4.97;;;16.10;99.90;;;;;;4951557;29;20835;-61
2021/11/02 11:39:20;;;;;;;4.87;4.50;;;16.00;99.90;;;;;;4934989;29;20464;-60
2021/11/02 11:41:51;;;;;;;4.90;4.50;;;15.90;99.90;;;;;;4950964;29;20516;-56
2021/11/02 11:44:19;;;;;;;4.67;4.27;;;15.80;99.90;;;;;;4946442;29;20488;-59
2021/11/02 11:46:47;;;;;;;5.30;4.90;;;15.80;99.90;;;;;;4950176;29;20433;-59
2021/11/02 11:49:25;;;;;;;5.70;5.30;;;15.80;99.90;;;;;;4951794;28;20461;-55
2021/11/02 11:51:55;;;;;;;4.17;3.87;;;16.00;99.90;;;;;;4950987;29;20425;-59
2021/11/02 11:54:22;;;;;;;4.90;4.50;;;16.10;99.90;;;;;;4952072;29;20429;-58
2021/11/02 11:56:49;;;;;;;4.50;4.10;;;16.10;99.90;;;;;;4952371;29;20441;-59
2021/11/02 11:59:18;;;;;;;4.90;4.60;;;16.10;99.60;;;;;;4951442;29;21264;-56
2021/11/02 12:01:59;;;;;;;4.20;3.90;;;16.10;99.90;;;;;;4953949;29;20524;-58
2021/11/02 12:04:41;;;;;;;4.83;4.40;;;16.00;99.20;;;;;;4952403;29;20433;-58
2021/11/02 12:07:43;;;;;;;5.23;4.83;;;15.70;99.60;;;;;;4922624;29;20422;-50
2021/11/02 12:10:11;;;;;;;4.60;4.30;;;15.60;98.70;;;;;;4951142;29;20439;-59
2021/11/02 12:12:39;;;;;;;5.87;4.60;;;15.30;99.90;;;;;;4953164;29;20493;-60
2021/11/02 12:15:14;;;;;;;4.80;4.50;;;15.20;99.90;;;;;;4941439;29;20449;-62
2021/11/02 12:17:41;;;;;;;4.80;4.50;;;15.30;99.90;;;;;;4948970;29;20418;-61
2021/11/02 12:20:11;;;;;;;6.13;4.50;;;15.60;99.90;;;;;;4937242;29;20425;-61
2021/11/02 12:22:51;;;;;;;5.10;4.77;;;15.80;99.70;;;;;;4945603;29;20562;-61
2021/11/02 12:25:28;;;;;;;4.27;3.97;;;16.20;99.80;;;;;;4935411;29;20952;-61
2021/11/02 12:27:55;;;;;;;4.43;4.10;;;16.50;97.20;;;;;;4940077;29;20465;-61
2021/11/02 12:30:22;;;;;;;4.43;4.13;;;16.20;95.90;;;;;;4952776;29;20829;-61
2021/11/02 12:32:55;;;;;;;4.37;4.07;;;15.90;95.50;;;;;;4948513;29;20508;-59
2021/11/02 12:35:41;;;;;;;3.73;3.53;;;15.70;96.20;;;;;;4948528;28;20418;-61
2021/11/02 12:38:07;;;;;;;4.43;4.07;;;15.30;97.70;;;;;;4946525;29;20426;-61
2021/11/02 12:40:37;;;;;;;4.93;4.53;;;15.10;98.50;;;;;;4945884;29;20487;-60
2021/11/02 12:43:06;;;;;;;4.93;4.63;;;14.90;98.60;;;;;;4952196;29;20702;-60
2021/11/02 12:45:40;;;;;;;4.70;4.40;;;14.70;99.60;;;;;;4952609;29;20440;-61
2021/11/02 12:48:10;;;;;;;4.73;4.43;;;14.50;99.20;;;;;;4952136;29;20453;-59
2021/11/02 12:50:38;;;;;;;4.47;4.17;;;14.20;98.90;;;;;;4941831;29;20419;-60
2021/11/02 12:53:05;;;;;;;4.83;4.40;;;14.10;99.90;;;;;;4949514;29;20441;-57
2021/11/02 12:55:32;;;;;;;4.67;4.30;;;14.00;99.90;;;;;;4952600;29;20413;-60
2021/11/02 12:58:07;;;;;;;4.73;4.20;;;13.90;99.90;;;;;;4952452;29;20509;-61
2021/11/02 13:00:46;;;;;;;4.20;3.90;;;13.80;99.90;;;;;;4947157;28;20783;-61
2021/11/02 13:03:24;;;;;;;5.07;4.60;;;13.80;99.90;;;;;;4934912;29;20544;-58
2021/11/02 13:06:02;;;;;;;4.53;4.23;;;13.80;99.90;;;;;;4932540;29;20947;-58
2021/11/02 13:08:30;;;;;;;5.03;4.60;;;13.80;99.90;;;;;;4934428;29;20509;-58
2021/11/02 13:11:09;;;;;;;6.30;5.17;;;13.70;99.90;;;;;;4934253;29;20869;-60
2021/11/02 13:13:56;;;;;;;5.00;4.50;;;13.70;99.90;;;;;;4933879;29;20460;-60
2021/11/02 13:16:22;;;;;;;4.33;4.03;;;13.50;99.90;;;;;;4943869;29;21044;-60
2021/11/02 13:18:48;;;;;;;4.57;4.27;;;13.30;99.90;;;;;;4941335;29;20428;-61
2021/11/02 13:21:22;;;;;;;5.20;4.80;;;13.30;99.90;;;;;;4951889;29;20903;-63
2021/11/02 13:23:51;;;;;;;5.43;5.03;;;13.20;99.90;;;;;;4945807;29;20177;-59
2021/11/02 13:26:20;;;;;;;5.23;4.90;;;13.20;99.90;;;;;;4936857;29;20425;-59
2021/11/02 13:28:46;;;;;;;4.80;4.40;;;13.00;99.90;;;;;;4950829;29;20461;-60
2021/11/02 13:31:34;;;;;;;4.60;4.17;;;13.10;99.90;;;;;;4947773;29;20412;-58
2021/11/02 13:34:35;;;;;;;4.37;4.07;;;13.10;99.90;;;;;;4941651;28;20467;-61
2021/11/02 13:37:01;;;;;;;5.07;4.77;;;13.00;99.90;;;;;;4945347;28;20465;-58
2021/11/02 13:39:27;;;;;;;4.80;4.37;;;12.90;99.90;;;;;;4944065;29;20505;-59
2021/11/02 13:41:53;;;;;;;4.60;4.20;;;12.80;99.90;;;;;;4950660;29;20508;-60
2021/11/02 13:44:20;;;;;;;4.83;4.40;;;12.80;99.90;;;;;;4950641;29;20423;-60
2021/11/02 13:46:52;;;;;;;4.60;4.20;;;12.80;99.90;;;;;;4949739;29;20968;-61
2021/11/02 13:49:19;;;;;;;5.10;4.60;;;12.70;99.90;;;;;;4942755;29;20493;-58
2021/11/02 13:51:45;;;;;;;4.67;4.27;;;12.80;99.90;;;;;;4950707;29;20432;-57
2021/11/02 13:54:11;;;;;;;4.73;4.27;;;12.80;99.90;;;;;;4943902;29;20445;-58
2021/11/02 13:56:39;;;;;;;5.27;4.87;;;12.80;99.90;;;;;;4939020;29;20917;-56
2021/11/02 13:59:06;;;;;;;5.87;4.23;;;12.80;99.90;;;;;;4950616;29;20424;-58
2021/11/02 14:01:47;;;;;;;4.83;4.40;;;12.80;99.90;;;;;;4946575;29;20433;-61
2021/11/02 14:04:36;;;;;;;5.00;4.60;;;12.70;99.90;;;;;;4936363;29;20513;-61
2021/11/02 14:07:18;;;;;;;4.93;4.53;;;12.80;99.90;;;;;;4948470;29;20861;-59
2021/11/02 14:09:51;;;;;;;4.37;4.00;;;12.80;99.90;;;;;;4950605;29;20417;-60
2021/11/02 14:12:28;;;;;;;4.50;4.20;;;12.80;99.90;;;;;;4949404;28;20425;-58
2021/11/02 14:15:09;;;;;;;5.10;4.67;;;12.80;99.90;;;;;;4950551;29;20983;-63
2021/11/02 14:17:35;;;;;;;7.07;4.00;;;12.70;99.90;;;;;;4948468;29;20916;-61
2021/11/02 14:20:00;;;;;;;4.67;4.23;;;12.70;99.90;;;;;;4947142;29;20434;-59
2021/11/02 14:22:50;;;;;;;5.10;4.70;;;12.70;99.90;;;;;;4947501;29;20572;-62
2021/11/02 14:25:30;;;;;;;5.10;3.93;;;12.70;99.90;;;;;;4949078;29;20189;-61
2021/11/02 14:27:56;;;;;;;8.97;4.80;;;12.70;99.90;;;;;;4949269;29;20510;-63
2021/11/02 14:30:23;;;;;;;5.20;4.77;;;12.80;99.90;;;;;;4948035;29;20409;-61
2021/11/02 14:32:51;;;;;;;4.33;4.03;;;12.80;99.90;;;;;;4947170;28;20564;-58
2021/11/02 14:35:37;;;;;;;4.20;3.90;;;12.80;99.90;;;;;;4940020;29;20917;-62
2021/11/02 14:38:04;;;;;;;4.57;4.17;;;12.90;99.90;;;;;;4950075;29;20432;-59
2021/11/02 14:40:42;;;;;;;4.90;4.50;;;12.80;99.90;;;;;;4950168;29;20428;-60
2021/11/02 14:43:22;;;;;;;4.70;4.30;;;12.90;99.90;;;;;;4945033;29;20951;-62
2021/11/02 14:45:53;;;;;;;5.07;4.67;;;12.90;99.90;;;;;;4950498;29;20508;-60
2021/11/02 14:48:25;;;;;;;4.57;4.17;;;12.80;99.90;;;;;;4948216;29;20479;-60
2021/11/02 14:50:54;;;;;;;4.33;3.93;;;12.80;99.90;;;;;;4950064;29;20876;-60
2021/11/02 14:53:30;;;;;;;4.93;4.30;;;12.80;99.90;;;;;;4946276;29;20533;-59
2021/11/02 14:56:07;;;;;;;4.30;4.00;;;12.70;99.90;;;;;;4949772;29;20417;-61
2021/11/02 14:58:38;;;;;;;4.50;4.10;;;12.70;99.90;;;;;;4943636;29;20480;-59
2021/11/02 15:01:24;;;;;;;4.97;4.50;;;12.70;99.90;;;;;;4947188;29;20939;-59
2021/11/02 15:03:53;;;;;;;5.07;4.70;;;12.70;99.90;;;;;;4947591;29;20451;-60
2021/11/02 15:06:19;;;;;;;4.70;4.40;;;12.70;99.90;;;;;;4947160;29;20536;-60
2021/11/02 15:08:46;;;;;;;4.80;4.40;;;12.70;99.90;;;;;;4950937;29;20573;-60
2021/11/02 15:11:15;;;;;;;4.50;4.13;;;12.60;99.90;;;;;;4950037;29;20414;-60
2021/11/02 15:13:52;;;;;;;4.80;4.40;;;12.60;99.90;;;;;;4949354;29;20830;-60
2021/11/02 15:16:20;;;;;;;5.80;4.60;;;12.50;99.90;;;;;;4938789;29;20954;-60
2021/11/02 15:18:50;;;;;;;6.57;4.50;;;12.50;99.90;;;;;;4950418;29;20421;-60
2021/11/02 15:21:28;;;;;;;6.20;5.70;;;12.40;99.90;;;;;;4948038;29;20858;-60
2021/11/02 15:23:54;;;;;;;7.60;6.77;;;12.30;99.90;;;;;;4951017;28;20435;-60
2021/11/02 15:26:20;;;;;;;7.30;5.90;;;12.30;99.90;;;;;;4954569;29;20421;-59
2021/11/02 15:28:48;;;;;;;5.73;5.23;;;12.20;99.90;;;;;;4945746;29;20218;-59
2021/11/02 15:31:23;;;;;;;5.73;5.23;;;12.10;99.90;;;;;;4938229;29;20609;-59
2021/11/02 15:33:49;;;;;;;4.67;4.23;;;12.10;99.90;;;;;;4938614;29;20511;-59
2021/11/02 15:36:19;;;;;;;4.90;4.50;;;12.10;99.90;;;;;;4952898;29;20482;-60
2021/11/02 15:38:56;;;;;;;5.70;4.77;;;12.00;99.90;;;;;;4947299;29;20433;-60
2021/11/02 15:41:23;;;;;;;6.30;4.33;;;12.00;99.90;;;;;;4944057;29;20520;-60
2021/11/02 15:43:55;;;;;;;5.00;4.50;;;12.00;99.90;;;;;;4941621;29;20440;-59
2021/11/02 15:46:34;;;;;;;5.30;4.83;;;11.90;99.90;;;;;;4950434;29;20444;-60
2021/11/02 15:49:03;;;;;;;4.50;4.10;;;11.70;99.90;;;;;;4947439;29;20479;-60
2021/11/02 15:51:33;;;;;;;5.20;4.70;;;11.60;99.90;;;;;;4951528;29;20421;-60
2021/11/02 15:54:04;;;;;;;5.00;4.60;;;11.50;99.90;;;;;;4941589;29;20429;-60
2021/11/02 15:56:30;;;;;;;5.87;5.10;;;11.40;99.90;;;;;;4944378;29;21095;-59
2021/11/02 15:59:05;;;;;;;8.13;7.10;;;11.40;99.90;;;;;;4951179;29;20425;-60
2021/11/02 16:01:47;;;;;;;13.47;12.00;;;11.40;99.90;;;;;;4954295;29;20186;-59
2021/11/02 16:04:19;;;;;;;13.07;10.50;;;11.30;99.90;;;;;;4938128;29;20792;-59
2021/11/02 16:07:07;;;;;;;6.90;6.20;;;11.30;99.90;;;;;;4935085;29;21014;-60
2021/11/02 16:09:54;;;;;;;7.53;5.90;;;11.30;99.90;;;;;;4933516;29;20838;-60
2021/11/02 16:12:27;;;;;;;7.27;6.30;;;11.30;99.90;;;;;;4929154;29;20480;-59
2021/11/02 16:15:11;;;;;;;9.77;6.60;;;11.30;99.90;;;;;;4953387;29;20437;-60
2021/11/02 16:17:58;;;;;;;7.30;6.50;;;11.20;99.90;;;;;;4954213;29;20412;-59
2021/11/02 16:20:32;;;;;;;7.97;6.10;;;11.10;99.90;;;;;;4953458;29;20460;-52
2021/11/02 16:23:19;;;;;;;9.30;6.80;;;11.10;99.90;;;;;;4936873;29;20446;-60
2021/11/02 16:25:49;;;;;;;6.57;5.97;;;11.10;99.90;;;;;;4949412;28;20405;-60
2021/11/02 16:28:21;;;;;;;7.13;6.43;;;11.00;99.90;;;;;;4954852;28;20499;-60
2021/11/02 16:30:50;;;;;;;7.27;6.57;;;11.00;99.90;;;;;;4953163;29;20417;-58
2021/11/02 16:33:17;;;;;;;8.83;6.60;;;10.90;99.90;;;;;;4950704;29;20484;-58
2021/11/02 16:35:45;;;;;;;8.67;7.87;;;10.90;99.90;;;;;;4952399;28;20425;-61
2021/11/02 16:38:19;;;;;;;7.80;6.93;;;10.80;99.90;;;;;;4953107;29;20854;-59
2021/11/02 16:41:02;;;;;;;7.70;6.97;;;10.80;99.90;;;;;;4941652;29;20420;-58
2021/11/02 16:43:32;;;;;;;9.27;8.40;;;10.80;99.90;;;;;;4945633;29;21296;-58
2021/11/02 16:45:58;;;;;;;8.40;7.60;;;10.70;99.90;;;;;;4953744;29;20550;-58
2021/11/02 16:48:40;;;;;;;9.67;8.70;;;10.70;99.90;;;;;;4949736;29;21344;-59
2021/11/02 16:51:07;;;;;;;9.53;8.53;;;10.60;99.90;;;;;;4942812;29;20488;-59
2021/11/02 16:53:32;;;;;;;9.63;8.00;;;10.60;99.90;;;;;;4929834;29;20440;-58
2021/11/02 16:56:24;;;;;;;10.63;9.40;;;10.50;99.90;;;;;;4949539;29;20953;-60
2021/11/02 16:58:52;;;;;;;10.23;9.23;;;10.50;99.90;;;;;;4941317;29;20494;-59
2021/11/02 17:01:22;;;;;;;9.73;8.73;;;10.40;99.90;;;;;;4950239;29;20437;-59
2021/11/02 17:03:48;;;;;;;11.60;9.87;;;10.30;99.90;;;;;;4952234;29;20877;-59
2021/11/02 17:06:29;;;;;;;13.70;9.30;;;10.20;99.90;;;;;;4952642;29;20417;-59
2021/11/02 17:09:00;;;;;;;11.03;9.83;;;10.10;99.90;;;;;;4946387;29;20567;-60
2021/11/02 17:11:26;;;;;;;11.30;9.30;;;10.00;99.90;;;;;;4950278;29;20426;-60
2021/11/02 17:13:52;;;;;;;12.77;9.30;;;10.00;99.90;;;;;;4929705;29;20936;-59
2021/11/02 17:16:23;;;;;;;10.80;9.33;;;10.00;99.90;;;;;;4938078;29;20190;-60
2021/11/02 17:19:04;;;;;;;11.40;10.30;;;9.90;99.90;;;;;;4949596;29;20413;-60
2021/11/02 17:21:32;;;;;;;12.30;10.90;;;9.90;99.90;;;;;;4939439;29;20516;-60
2021/11/02 17:23:59;;;;;;;13.53;10.70;;;9.80;99.90;;;;;;4940749;29;20476;-60
2021/11/02 17:26:27;;;;;;;14.23;10.37;;;9.70;99.90;;;;;;4949802;29;20772;-61
2021/11/02 17:28:54;;;;;;;13.93;10.90;;;9.60;99.90;;;;;;4936751;29;20469;-61
2021/11/02 17:31:23;;;;;;;12.73;11.43;;;9.60;99.90;;;;;;4941686;29;20461;-60
2021/11/02 17:33:49;;;;;;;12.07;10.77;;;9.40;99.90;;;;;;4939966;29;20473;-61
2021/11/02 17:36:17;;;;;;;11.80;10.57;;;9.30;99.90;;;;;;4932579;29;20422;-58
2021/11/02 17:38:47;;;;;;;13.83;11.17;;;9.30;99.90;;;;;;4942506;29;20437;-60
2021/11/02 17:41:15;;;;;;;13.03;10.60;;;9.20;99.90;;;;;;4943931;29;20956;-60
2021/11/02 17:43:43;;;;;;;12.97;11.30;;;9.20;99.90;;;;;;4934887;29;20444;-59
2021/11/02 17:46:10;;;;;;;13.40;11.50;;;9.10;99.90;;;;;;4933110;29;20410;-60
2021/11/02 17:48:37;;;;;;;12.20;10.90;;;9.10;99.90;;;;;;4943406;29;20837;-60
2021/11/02 17:51:04;;;;;;;14.00;12.50;;;9.00;99.90;;;;;;4933038;29;20464;-60
2021/11/02 17:53:30;;;;;;;12.40;11.10;;;9.00;99.90;;;;;;4952362;29;20413;-59
2021/11/02 17:56:05;;;;;;;13.73;11.60;;;9.00;99.90;;;;;;4950308;29;20432;-60
2021/11/02 17:58:31;;;;;;;14.97;12.70;;;8.90;99.90;;;;;;4934892;29;20429;-62
2021/11/02 18:01:01;;;;;;;20.03;14.90;;;8.90;99.90;;;;;;4936149;29;20422;-62